Time;durP1;ratioP1;P1;durP2;ratioP2;P2;SDS_P1;SDS_P2;PMS_P1;PMS_P2;Temp;Humidity;BMP_temperature;BMP_pressure;BME280_temperature;BME280_humidity;BME280_pressure;Samples;Min_cycle;Max_cycle;Signal;HPM_P1;HPM_P2
2022/11/15 00:00:01;;;;;;;17.05;12.70;;;;;;;;;;1038885;28;20112;-74
2022/11/15 00:00:32;;;;;;;16.42;11.90;;;;;;;;;;1038946;28;20103;-75
2022/11/15 00:01:06;;;;;;;19.00;14.30;;;;;;;;;;1035121;28;20022;-75
2022/11/15 00:01:38;;;;;;;25.30;15.85;;;;;;;;;;1039310;28;20022;-75
2022/11/15 00:02:09;;;;;;;22.35;12.57;;;;;;;;;;1034656;28;20779;-74
2022/11/15 00:02:40;;;;;;;22.50;16.42;;;;;;;;;;1039436;28;20553;-74
2022/11/15 00:03:13;;;;;;;21.30;14.18;;;;;;;;;;1042988;28;20254;-75
2022/11/15 00:03:44;;;;;;;20.77;16.85;;;;;;;;;;1039641;28;20025;-74
2022/11/15 00:04:15;;;;;;;18.55;12.73;;;;;;;;;;1039128;28;20028;-74
2022/11/15 00:04:46;;;;;;;20.30;13.77;;;;;;;;;;1039219;28;20029;-74
2022/11/15 00:05:17;;;;;;;22.02;13.82;;;;;;;;;;1034968;28;20018;-75
2022/11/15 00:05:49;;;;;;;22.17;14.68;;;;;;;;;;1039625;28;20021;-75
2022/11/15 00:06:20;;;;;;;18.10;12.75;;;;;;;;;;1042857;28;20108;-73
2022/11/15 00:06:50;;;;;;;19.27;11.57;;;;;;;;;;1043749;28;20116;-75
2022/11/15 00:07:21;;;;;;;21.95;14.40;;;;;;;;;;1042655;28;20027;-74
2022/11/15 00:07:52;;;;;;;19.17;12.50;;;;;;;;;;1039115;28;20505;-74
2022/11/15 00:08:23;;;;;;;26.17;15.23;;;;;;;;;;1034585;28;20124;-75
2022/11/15 00:08:54;;;;;;;30.40;19.95;;;;;;;;;;1035259;28;20126;-74
2022/11/15 00:09:25;;;;;;;20.88;12.50;;;;;;;;;;1039424;28;20092;-74
2022/11/15 00:09:56;;;;;;;17.85;12.35;;;;;;;;;;1039229;28;20034;-75
2022/11/15 00:10:27;;;;;;;24.75;15.45;;;;;;;;;;1042992;28;20029;-73
2022/11/15 00:10:59;;;;;;;23.23;14.63;;;;;;;;;;1043122;28;20025;-74
2022/11/15 00:11:30;;;;;;;22.13;15.07;;;;;;;;;;1043038;28;20435;-73
2022/11/15 00:12:01;;;;;;;21.35;13.25;;;;;;;;;;1043511;28;20391;-75
2022/11/15 00:12:32;;;;;;;24.05;16.08;;;;;;;;;;1038380;28;20460;-74
2022/11/15 00:13:10;;;;;;;29.02;17.08;;;;;;;;;;1039107;28;20051;-73
2022/11/15 00:13:41;;;;;;;26.77;15.35;;;;;;;;;;1040096;28;20423;-74
2022/11/15 00:14:12;;;;;;;21.10;13.18;;;;;;;;;;1044191;28;20108;-72
2022/11/15 00:14:43;;;;;;;24.95;16.02;;;;;;;;;;1047536;28;20058;-73
2022/11/15 00:15:14;;;;;;;23.30;15.65;;;;;;;;;;1047064;28;20024;-73
2022/11/15 00:15:45;;;;;;;22.40;15.80;;;;;;;;;;1046987;28;20024;-73
2022/11/15 00:16:16;;;;;;;24.55;16.05;;;;;;;;;;1042857;28;20583;-73
2022/11/15 00:16:47;;;;;;;22.48;15.10;;;;;;;;;;1043194;28;20025;-74
2022/11/15 00:17:18;;;;;;;28.38;16.52;;;;;;;;;;1043409;28;20056;-74
2022/11/15 00:17:50;;;;;;;26.27;15.40;;;;;;;;;;1043321;28;20025;-74
2022/11/15 00:18:21;;;;;;;27.80;16.70;;;;;;;;;;1047069;28;20895;-73
2022/11/15 00:18:52;;;;;;;22.27;14.75;;;;;;;;;;1047159;28;20870;-73
2022/11/15 00:19:23;;;;;;;24.48;15.35;;;;;;;;;;1046846;28;20032;-73
2022/11/15 00:19:54;;;;;;;24.92;16.65;;;;;;;;;;1042728;28;20032;-73
2022/11/15 00:20:25;;;;;;;27.77;18.27;;;;;;;;;;1043118;28;20020;-73
2022/11/15 00:20:56;;;;;;;20.20;13.23;;;;;;;;;;1043213;28;20051;-74
2022/11/15 00:21:27;;;;;;;25.92;17.35;;;;;;;;;;1047357;28;20024;-73
2022/11/15 00:21:58;;;;;;;19.85;13.95;;;;;;;;;;1047227;28;20127;-74
2022/11/15 00:22:33;;;;;;;27.27;16.50;;;;;;;;;;1047186;28;20017;-74
2022/11/15 00:23:04;;;;;;;24.77;16.60;;;;;;;;;;1046971;28;20017;-74
2022/11/15 00:23:35;;;;;;;25.23;15.35;;;;;;;;;;1047195;28;20032;-74
2022/11/15 00:24:06;;;;;;;20.20;13.18;;;;;;;;;;1047017;28;20107;-73
2022/11/15 00:24:37;;;;;;;24.48;14.60;;;;;;;;;;1047280;28;20423;-73
2022/11/15 00:25:08;;;;;;;22.08;13.38;;;;;;;;;;1043100;28;20399;-74
2022/11/15 00:25:39;;;;;;;25.23;14.75;;;;;;;;;;1043340;28;20029;-74
2022/11/15 00:26:12;;;;;;;26.52;14.98;;;;;;;;;;1043117;28;20021;-74
2022/11/15 00:26:43;;;;;;;24.65;15.02;;;;;;;;;;1043585;28;20016;-75
2022/11/15 00:27:14;;;;;;;22.38;15.18;;;;;;;;;;1043484;28;20021;-73
2022/11/15 00:27:45;;;;;;;25.50;16.38;;;;;;;;;;1043715;28;20799;-75
2022/11/15 00:28:16;;;;;;;27.40;17.20;;;;;;;;;;1043181;28;20024;-74
2022/11/15 00:28:47;;;;;;;21.92;13.68;;;;;;;;;;1043588;28;20025;-73
2022/11/15 00:29:17;;;;;;;25.15;15.32;;;;;;;;;;1043056;28;20032;-74
2022/11/15 00:29:48;;;;;;;24.98;16.63;;;;;;;;;;1043713;28;20369;-74
2022/11/15 00:30:19;;;;;;;25.15;16.63;;;;;;;;;;1046902;28;20028;-74
2022/11/15 00:30:50;;;;;;;25.60;18.77;;;;;;;;;;1045866;28;20033;-74
2022/11/15 00:31:21;;;;;;;28.05;16.20;;;;;;;;;;1042847;28;20025;-74
2022/11/15 00:31:52;;;;;;;23.85;16.10;;;;;;;;;;1043164;28;20450;-74
2022/11/15 00:32:23;;;;;;;24.30;15.88;;;;;;;;;;1043106;28;20080;-74
2022/11/15 00:32:55;;;;;;;25.13;16.80;;;;;;;;;;1043656;28;20391;-74
2022/11/15 00:33:26;;;;;;;26.10;17.17;;;;;;;;;;1043029;28;20027;-74
2022/11/15 00:33:56;;;;;;;27.98;18.17;;;;;;;;;;1043027;28;20095;-74
2022/11/15 00:34:27;;;;;;;21.40;13.77;;;;;;;;;;1042672;28;20124;-75
2022/11/15 00:34:58;;;;;;;28.35;18.13;;;;;;;;;;1043265;28;20151;-73
2022/11/15 00:35:32;;;;;;;24.83;16.38;;;;;;;;;;1042979;28;20017;-74
2022/11/15 00:36:04;;;;;;;21.98;14.27;;;;;;;;;;1042687;28;20009;-74
2022/11/15 00:36:35;;;;;;;22.60;15.30;;;;;;;;;;1039039;28;20487;-74
2022/11/15 00:37:06;;;;;;;22.95;14.20;;;;;;;;;;1039397;28;20551;-74
2022/11/15 00:37:37;;;;;;;22.20;14.73;;;;;;;;;;1039171;28;20078;-75
2022/11/15 00:38:08;;;;;;;23.50;15.57;;;;;;;;;;1039456;28;20075;-74
2022/11/15 00:38:40;;;;;;;24.08;13.85;;;;;;;;;;1039130;28;20032;-74
2022/11/15 00:39:11;;;;;;;21.83;14.32;;;;;;;;;;1042910;28;20025;-75
2022/11/15 00:39:42;;;;;;;25.05;15.77;;;;;;;;;;1042987;28;20025;-74
2022/11/15 00:40:13;;;;;;;22.00;15.98;;;;;;;;;;1043151;28;20394;-75
2022/11/15 00:40:44;;;;;;;22.85;16.45;;;;;;;;;;1038922;28;20029;-74
2022/11/15 00:41:15;;;;;;;26.00;15.80;;;;;;;;;;1034540;28;20033;-74
2022/11/15 00:41:46;;;;;;;24.42;14.95;;;;;;;;;;1034746;28;20401;-73
2022/11/15 00:42:17;;;;;;;26.30;15.52;;;;;;;;;;1034899;28;20034;-73
2022/11/15 00:42:48;;;;;;;24.67;15.07;;;;;;;;;;1039312;28;20064;-74
2022/11/15 00:43:19;;;;;;;27.77;18.42;;;;;;;;;;1039137;28;20474;-74
2022/11/15 00:43:50;;;;;;;20.23;14.70;;;;;;;;;;1039434;28;20026;-75
2022/11/15 00:44:21;;;;;;;24.65;14.75;;;;;;;;;;1039038;28;20029;-74
2022/11/15 00:44:52;;;;;;;21.05;14.13;;;;;;;;;;1039359;28;20025;-74
2022/11/15 00:45:23;;;;;;;23.48;15.63;;;;;;;;;;1039264;28;20723;-74
2022/11/15 00:45:54;;;;;;;22.77;14.85;;;;;;;;;;1039310;28;20100;-74
2022/11/15 00:46:25;;;;;;;24.55;15.57;;;;;;;;;;1040521;28;20486;-74
2022/11/15 00:46:56;;;;;;;22.48;13.55;;;;;;;;;;1043388;28;20433;-74
2022/11/15 00:47:27;;;;;;;24.02;14.43;;;;;;;;;;1043272;28;20055;-73
2022/11/15 00:47:58;;;;;;;19.85;13.80;;;;;;;;;;1047159;28;20120;-73
2022/11/15 00:48:29;;;;;;;18.67;12.15;;;;;;;;;;1046936;28;20021;-74
2022/11/15 00:49:00;;;;;;;24.65;15.65;;;;;;;;;;1047349;28;20035;-73
2022/11/15 00:49:31;;;;;;;22.55;13.95;;;;;;;;;;1046634;28;20134;-74
2022/11/15 00:50:02;;;;;;;27.50;16.45;;;;;;;;;;1042769;28;21520;-73
2022/11/15 00:50:33;;;;;;;28.30;17.65;;;;;;;;;;1042571;28;20029;-73
2022/11/15 00:51:04;;;;;;;25.17;15.93;;;;;;;;;;1038910;28;20116;-73
2022/11/15 00:51:35;;;;;;;20.77;14.25;;;;;;;;;;1038378;28;20060;-73
2022/11/15 00:52:06;;;;;;;23.25;14.65;;;;;;;;;;1035214;28;20025;-73
2022/11/15 00:52:37;;;;;;;21.45;13.95;;;;;;;;;;1038673;28;20028;-74
2022/11/15 00:53:08;;;;;;;20.52;13.20;;;;;;;;;;1039061;28;20025;-73
2022/11/15 00:53:39;;;;;;;24.13;15.82;;;;;;;;;;1043052;28;20443;-72
2022/11/15 00:54:10;;;;;;;26.05;17.73;;;;;;;;;;1043371;28;20017;-73
2022/11/15 00:54:41;;;;;;;28.88;18.60;;;;;;;;;;1038171;28;20116;-73
2022/11/15 00:55:19;;;;;;;24.00;16.67;;;;;;;;;;1034615;28;20582;-74
2022/11/15 00:55:49;;;;;;;20.02;13.10;;;;;;;;;;1034649;28;20034;-73
2022/11/15 00:56:20;;;;;;;27.40;15.73;;;;;;;;;;1035781;28;20393;-73
2022/11/15 00:56:51;;;;;;;24.85;16.27;;;;;;;;;;1038673;28;20021;-74
2022/11/15 00:57:22;;;;;;;19.83;12.98;;;;;;;;;;1038915;28;20021;-73
2022/11/15 00:57:53;;;;;;;20.10;12.45;;;;;;;;;;1039263;28;20022;-73
2022/11/15 00:58:24;;;;;;;22.40;13.93;;;;;;;;;;1043228;28;20021;-73
2022/11/15 00:58:55;;;;;;;24.60;18.80;;;;;;;;;;1038491;28;20627;-73
2022/11/15 00:59:26;;;;;;;24.08;14.60;;;;;;;;;;1034834;28;20523;-74
2022/11/15 00:59:57;;;;;;;25.20;15.32;;;;;;;;;;1034628;28;20053;-73
2022/11/15 01:00:28;;;;;;;25.55;16.15;;;;;;;;;;1034992;28;20022;-74
2022/11/15 01:01:10;;;;;;;21.98;15.05;;;;;;;;;;1040198;28;20054;-73
2022/11/15 01:01:41;;;;;;;23.83;14.43;;;;;;;;;;1042952;28;20032;-74
2022/11/15 01:02:12;;;;;;;25.88;15.50;;;;;;;;;;1038524;28;20010;-73
2022/11/15 01:02:43;;;;;;;26.67;17.60;;;;;;;;;;1047044;28;20903;-73
2022/11/15 01:03:14;;;;;;;22.90;14.25;;;;;;;;;;1047041;28;20521;-74
2022/11/15 01:03:45;;;;;;;21.40;12.25;;;;;;;;;;1042974;28;20154;-74
2022/11/15 01:04:15;;;;;;;21.25;14.18;;;;;;;;;;1042869;28;20025;-74
2022/11/15 01:04:46;;;;;;;19.75;13.88;;;;;;;;;;1043250;28;20036;-74
2022/11/15 01:05:17;;;;;;;21.25;13.40;;;;;;;;;;1038670;28;20538;-74
2022/11/15 01:05:48;;;;;;;21.50;14.32;;;;;;;;;;1043292;28;20119;-73
2022/11/15 01:06:19;;;;;;;19.42;13.45;;;;;;;;;;1042705;28;20048;-74
2022/11/15 01:06:50;;;;;;;21.45;15.43;;;;;;;;;;1042997;28;20040;-73
2022/11/15 01:07:21;;;;;;;22.08;14.23;;;;;;;;;;1042637;28;20103;-74
2022/11/15 01:07:53;;;;;;;19.83;13.48;;;;;;;;;;1038704;28;20116;-74
2022/11/15 01:08:24;;;;;;;20.88;13.38;;;;;;;;;;1038691;28;20029;-74
2022/11/15 01:08:55;;;;;;;19.25;13.80;;;;;;;;;;1038976;28;20100;-74
2022/11/15 01:09:26;;;;;;;24.10;15.25;;;;;;;;;;1042956;28;20021;-73
2022/11/15 01:09:57;;;;;;;20.98;14.13;;;;;;;;;;1046733;28;20995;-74
2022/11/15 01:10:28;;;;;;;18.30;12.90;;;;;;;;;;1046815;28;20503;-74
2022/11/15 01:11:07;;;;;;;21.90;13.02;;;;;;;;;;1042843;28;20029;-74
2022/11/15 01:11:38;;;;;;;19.70;13.90;;;;;;;;;;1042800;28;20499;-73
2022/11/15 01:12:09;;;;;;;19.80;13.90;;;;;;;;;;1038715;28;20804;-74
2022/11/15 01:12:40;;;;;;;24.55;14.80;;;;;;;;;;1039951;28;20025;-74
2022/11/15 01:13:10;;;;;;;18.10;13.32;;;;;;;;;;1042975;28;20033;-74
2022/11/15 01:13:41;;;;;;;23.83;14.23;;;;;;;;;;1038771;28;20080;-74
2022/11/15 01:14:12;;;;;;;21.17;14.93;;;;;;;;;;1042860;28;20566;-74
2022/11/15 01:14:43;;;;;;;16.00;11.38;;;;;;;;;;1042779;28;20037;-74
2022/11/15 01:15:14;;;;;;;20.42;14.18;;;;;;;;;;1042989;28;20028;-74
2022/11/15 01:15:45;;;;;;;16.70;13.25;;;;;;;;;;1042739;28;20666;-74
2022/11/15 01:16:18;;;;;;;21.55;14.60;;;;;;;;;;1042776;28;20048;-74
2022/11/15 01:16:49;;;;;;;21.98;14.48;;;;;;;;;;1038466;28;20022;-74
2022/11/15 01:17:20;;;;;;;18.50;13.85;;;;;;;;;;1039275;28;20083;-74
2022/11/15 01:17:51;;;;;;;23.42;16.27;;;;;;;;;;1038677;28;20014;-74
2022/11/15 01:18:22;;;;;;;20.85;12.93;;;;;;;;;;1038916;28;20174;-74
2022/11/15 01:18:53;;;;;;;22.63;14.10;;;;;;;;;;1038538;28;20065;-74
2022/11/15 01:19:24;;;;;;;20.38;14.25;;;;;;;;;;1038996;28;20048;-74
2022/11/15 01:19:55;;;;;;;21.00;14.05;;;;;;;;;;1042716;28;20028;-74
2022/11/15 01:20:25;;;;;;;28.38;14.45;;;;;;;;;;1043044;28;20707;-74
2022/11/15 01:20:56;;;;;;;19.67;14.05;;;;;;;;;;1043199;28;20025;-74
2022/11/15 01:21:27;;;;;;;21.20;14.10;;;;;;;;;;1043145;28;20025;-74
2022/11/15 01:21:58;;;;;;;27.30;14.48;;;;;;;;;;1042578;28;20126;-74
2022/11/15 01:22:29;;;;;;;21.35;14.98;;;;;;;;;;1038774;28;20147;-74
2022/11/15 01:23:00;;;;;;;18.98;12.82;;;;;;;;;;1038509;28;20388;-73
2022/11/15 01:23:31;;;;;;;21.48;14.55;;;;;;;;;;1039293;28;20110;-74
2022/11/15 01:24:02;;;;;;;17.85;12.63;;;;;;;;;;1042706;28;20025;-74
2022/11/15 01:24:33;;;;;;;21.15;14.65;;;;;;;;;;1043211;28;20487;-74
2022/11/15 01:25:04;;;;;;;26.20;17.08;;;;;;;;;;1042619;28;20025;-74
2022/11/15 01:25:35;;;;;;;21.92;14.20;;;;;;;;;;1043026;28;20025;-74
2022/11/15 01:26:08;;;;;;;20.48;14.32;;;;;;;;;;1042686;28;20021;-74
2022/11/15 01:26:39;;;;;;;17.95;13.32;;;;;;;;;;1042925;28;20037;-74
2022/11/15 01:27:10;;;;;;;21.40;15.80;;;;;;;;;;1042620;28;20114;-74
2022/11/15 01:27:41;;;;;;;25.23;15.85;;;;;;;;;;1039337;28;20117;-74
2022/11/15 01:28:12;;;;;;;20.95;15.05;;;;;;;;;;1042542;28;20054;-74
2022/11/15 01:28:43;;;;;;;22.05;14.95;;;;;;;;;;1038982;28;20075;-74
2022/11/15 01:29:14;;;;;;;21.88;14.50;;;;;;;;;;1038497;28;20025;-74
2022/11/15 01:29:45;;;;;;;19.25;13.45;;;;;;;;;;1038892;28;20142;-74
2022/11/15 01:30:16;;;;;;;20.52;14.20;;;;;;;;;;1038561;28;20104;-74
2022/11/15 01:30:47;;;;;;;21.83;14.25;;;;;;;;;;1038675;28;20092;-74
2022/11/15 01:31:19;;;;;;;22.00;14.00;;;;;;;;;;1038635;28;20033;-74
2022/11/15 01:31:50;;;;;;;27.90;18.80;;;;;;;;;;1042988;28;20025;-73
2022/11/15 01:32:21;;;;;;;24.67;15.88;;;;;;;;;;1042434;28;20632;-74
2022/11/15 01:32:52;;;;;;;21.15;13.68;;;;;;;;;;1043291;28;20025;-74
2022/11/15 01:33:22;;;;;;;25.15;14.38;;;;;;;;;;1042876;28;20658;-74
2022/11/15 01:33:53;;;;;;;28.25;18.95;;;;;;;;;;1043290;28;20032;-74
2022/11/15 01:34:24;;;;;;;25.15;16.13;;;;;;;;;;1042835;28;20025;-74
2022/11/15 01:34:55;;;;;;;20.42;13.35;;;;;;;;;;1043128;28;20025;-75
2022/11/15 01:35:26;;;;;;;20.08;13.75;;;;;;;;;;1042986;28;20424;-75
2022/11/15 01:35:57;;;;;;;20.15;13.90;;;;;;;;;;1043207;28;20375;-73
2022/11/15 01:36:28;;;;;;;20.02;15.48;;;;;;;;;;1043217;28;20021;-74
2022/11/15 01:36:59;;;;;;;24.35;16.42;;;;;;;;;;1043100;28;20017;-73
2022/11/15 01:37:30;;;;;;;24.67;15.40;;;;;;;;;;1043015;28;20048;-74
2022/11/15 01:38:01;;;;;;;22.98;14.25;;;;;;;;;;1042643;28;20013;-73
2022/11/15 01:38:32;;;;;;;21.75;15.95;;;;;;;;;;1042675;28;20598;-75
2022/11/15 01:39:03;;;;;;;21.85;15.07;;;;;;;;;;1042903;28;20190;-75
2022/11/15 01:39:34;;;;;;;20.63;15.52;;;;;;;;;;1042856;28;20092;-74
2022/11/15 01:40:05;;;;;;;19.55;14.43;;;;;;;;;;1042906;28;20025;-74
2022/11/15 01:40:36;;;;;;;21.05;13.90;;;;;;;;;;1043201;28;20079;-74
2022/11/15 01:41:07;;;;;;;19.95;13.82;;;;;;;;;;1042841;28;20029;-74
2022/11/15 01:41:38;;;;;;;14.88;11.20;;;;;;;;;;1043370;28;20021;-73
2022/11/15 01:42:13;;;;;;;24.15;15.35;;;;;;;;;;1042972;28;20028;-74
2022/11/15 01:42:44;;;;;;;20.20;15.23;;;;;;;;;;1043087;28;20096;-74
2022/11/15 01:43:26;;;;;;;19.38;14.52;;;;;;;;;;1042866;28;20013;-74
2022/11/15 01:43:58;;;;;;;25.13;14.32;;;;;;;;;;1043127;28;20107;-74
2022/11/15 01:44:35;;;;;;;18.23;12.13;;;;;;;;;;1046831;28;20067;-74
2022/11/15 01:45:06;;;;;;;21.35;14.25;;;;;;;;;;1046835;28;20430;-74
2022/11/15 01:45:37;;;;;;;19.25;14.10;;;;;;;;;;1046692;28;20020;-74
2022/11/15 01:46:17;;;;;;;20.80;15.13;;;;;;;;;;1042587;28;20013;-74
2022/11/15 01:46:48;;;;;;;21.90;12.95;;;;;;;;;;1038766;28;20495;-75
2022/11/15 01:47:21;;;;;;;19.77;13.48;;;;;;;;;;1035831;28;20113;-74
2022/11/15 01:47:53;;;;;;;19.08;12.48;;;;;;;;;;1038589;28;20025;-74
2022/11/15 01:48:27;;;;;;;16.38;12.25;;;;;;;;;;1039015;28;20514;-74
2022/11/15 01:49:01;;;;;;;16.58;12.90;;;;;;;;;;1043022;28;20044;-74
2022/11/15 01:49:33;;;;;;;22.17;14.73;;;;;;;;;;1042620;28;20483;-75
2022/11/15 01:50:06;;;;;;;20.30;14.65;;;;;;;;;;1039651;28;20022;-74
2022/11/15 01:50:37;;;;;;;17.10;12.70;;;;;;;;;;1042778;28;20028;-74
2022/11/15 01:51:10;;;;;;;18.90;12.40;;;;;;;;;;1042690;28;20029;-75
2022/11/15 01:51:42;;;;;;;23.67;15.50;;;;;;;;;;1043101;28;20633;-74
2022/11/15 01:52:15;;;;;;;25.70;16.45;;;;;;;;;;1042842;28;20017;-74
2022/11/15 01:52:46;;;;;;;25.20;14.52;;;;;;;;;;1043268;28;20021;-74
2022/11/15 01:53:18;;;;;;;21.38;14.40;;;;;;;;;;1042255;28;20017;-74
2022/11/15 01:53:51;;;;;;;16.83;14.13;;;;;;;;;;1042856;28;20044;-73
2022/11/15 01:54:24;;;;;;;20.45;14.23;;;;;;;;;;1038137;28;20116;-74
2022/11/15 01:55:13;;;;;;;18.65;13.43;;;;;;;;;;1039721;28;20021;-74
2022/11/15 01:55:44;;;;;;;26.52;15.50;;;;;;;;;;1042580;28;20017;-75
2022/11/15 01:56:23;;;;;;;21.23;14.35;;;;;;;;;;1042489;28;20051;-74
2022/11/15 01:56:58;;;;;;;21.15;13.85;;;;;;;;;;1042745;28;20495;-74
2022/11/15 01:57:29;;;;;;;22.25;14.30;;;;;;;;;;1042558;28;20013;-75
2022/11/15 01:58:02;;;;;;;17.17;12.98;;;;;;;;;;1042895;28;20012;-74
2022/11/15 01:58:34;;;;;;;18.25;12.40;;;;;;;;;;1042472;28;20013;-74
2022/11/15 01:59:07;;;;;;;19.25;13.93;;;;;;;;;;1038586;28;20030;-74
2022/11/15 01:59:41;;;;;;;21.83;13.75;;;;;;;;;;1038475;28;20057;-74
2022/11/15 02:00:12;;;;;;;20.05;13.10;;;;;;;;;;1039637;28;20447;-74
2022/11/15 02:00:43;;;;;;;18.95;12.80;;;;;;;;;;1042794;28;20093;-74
2022/11/15 02:01:14;;;;;;;18.15;12.35;;;;;;;;;;1042674;28;20027;-74
2022/11/15 02:01:45;;;;;;;22.08;14.30;;;;;;;;;;1043286;28;20086;-75
2022/11/15 02:02:16;;;;;;;21.45;15.20;;;;;;;;;;1042905;28;20021;-74
2022/11/15 02:02:47;;;;;;;20.17;13.43;;;;;;;;;;1043167;28;20029;-74
2022/11/15 02:03:19;;;;;;;19.67;13.13;;;;;;;;;;1043067;28;20021;-73
2022/11/15 02:03:56;;;;;;;18.70;12.90;;;;;;;;;;1042969;28;20479;-74
2022/11/15 02:04:32;;;;;;;20.10;14.35;;;;;;;;;;1043233;28;20077;-73
2022/11/15 02:05:03;;;;;;;21.50;13.88;;;;;;;;;;1042697;28;20031;-73
2022/11/15 02:05:35;;;;;;;19.85;14.32;;;;;;;;;;1042581;28;20091;-73
2022/11/15 02:06:06;;;;;;;18.90;14.00;;;;;;;;;;1042589;28;20383;-73
2022/11/15 02:06:38;;;;;;;23.05;16.02;;;;;;;;;;1042576;28;20652;-74
2022/11/15 02:07:10;;;;;;;18.25;13.18;;;;;;;;;;1042729;28;20021;-73
2022/11/15 02:07:41;;;;;;;19.10;12.27;;;;;;;;;;1038530;28;20079;-74
2022/11/15 02:08:19;;;;;;;21.30;13.15;;;;;;;;;;1038768;28;20017;-74
2022/11/15 02:08:51;;;;;;;20.88;14.05;;;;;;;;;;1042877;28;20569;-73
2022/11/15 02:09:22;;;;;;;16.65;12.18;;;;;;;;;;1037628;28;20029;-73
2022/11/15 02:09:53;;;;;;;20.23;13.98;;;;;;;;;;1038639;28;20026;-73
2022/11/15 02:10:25;;;;;;;18.90;12.93;;;;;;;;;;1038444;28;20029;-73
2022/11/15 02:10:56;;;;;;;20.48;13.63;;;;;;;;;;1034761;28;20632;-73
2022/11/15 02:11:27;;;;;;;19.63;13.25;;;;;;;;;;1041524;28;20633;-75
2022/11/15 02:11:58;;;;;;;17.42;12.35;;;;;;;;;;1043223;28;20017;-73
2022/11/15 02:12:29;;;;;;;16.35;11.90;;;;;;;;;;1042381;28;20108;-73
2022/11/15 02:13:01;;;;;;;17.52;13.30;;;;;;;;;;1042778;28;20025;-73
2022/11/15 02:13:32;;;;;;;17.88;11.88;;;;;;;;;;1042449;28;20406;-74
2022/11/15 02:14:04;;;;;;;23.45;14.07;;;;;;;;;;1042817;28;20122;-74
2022/11/15 02:14:35;;;;;;;18.17;12.07;;;;;;;;;;1042806;28;20407;-75
2022/11/15 02:15:07;;;;;;;19.48;12.20;;;;;;;;;;1043200;28;20036;-73
2022/11/15 02:15:41;;;;;;;23.75;13.65;;;;;;;;;;1042913;28;20017;-73
2022/11/15 02:16:27;;;;;;;17.80;12.98;;;;;;;;;;1042493;28;20115;-73
2022/11/15 02:17:01;;;;;;;17.65;13.60;;;;;;;;;;1042907;28;20725;-73
2022/11/15 02:17:52;;;;;;;20.00;14.30;;;;;;;;;;1042437;28;20032;-74
2022/11/15 02:18:29;;;;;;;20.65;13.13;;;;;;;;;;1042783;28;20024;-74
2022/11/15 02:19:03;;;;;;;19.42;13.20;;;;;;;;;;1038523;28;20043;-73
2022/11/15 02:19:34;;;;;;;16.70;11.98;;;;;;;;;;1042548;28;20108;-73
2022/11/15 02:20:23;;;;;;;18.58;12.98;;;;;;;;;;1038649;28;20013;-73
2022/11/15 02:21:02;;;;;;;22.50;13.68;;;;;;;;;;1041527;28;20017;-73
2022/11/15 02:21:42;;;;;;;19.23;13.80;;;;;;;;;;1038442;28;20120;-73
2022/11/15 02:22:22;;;;;;;18.55;11.82;;;;;;;;;;1039119;28;20542;-73
2022/11/15 02:23:11;;;;;;;18.13;12.75;;;;;;;;;;1042188;28;20024;-73
2022/11/15 02:24:01;;;;;;;17.35;12.57;;;;;;;;;;1042641;28;20071;-74
2022/11/15 02:24:35;;;;;;;18.95;12.93;;;;;;;;;;1042463;28;20024;-73
2022/11/15 02:25:06;;;;;;;16.77;12.77;;;;;;;;;;1042909;28;20040;-73
2022/11/15 02:25:40;;;;;;;18.65;12.90;;;;;;;;;;1042895;28;20379;-73
2022/11/15 02:26:29;;;;;;;16.73;12.65;;;;;;;;;;1042439;28;20802;-73
2022/11/15 02:27:03;;;;;;;18.45;12.70;;;;;;;;;;1042339;28;20048;-73
2022/11/15 02:27:52;;;;;;;16.30;11.75;;;;;;;;;;1043221;28;20047;-74
2022/11/15 02:28:42;;;;;;;16.75;12.75;;;;;;;;;;1042445;28;20035;-73
2022/11/15 02:29:29;;;;;;;17.80;13.73;;;;;;;;;;1042349;28;20059;-74
2022/11/15 02:30:19;;;;;;;18.95;14.13;;;;;;;;;;1043408;28;20047;-73
2022/11/15 02:31:10;;;;;;;25.00;14.25;;;;;;;;;;1042980;28;20048;-74
2022/11/15 02:31:51;;;;;;;19.42;14.90;;;;;;;;;;1042575;28;20119;-74
2022/11/15 02:32:28;;;;;;;17.52;12.45;;;;;;;;;;1042480;28;20156;-74
2022/11/15 02:33:14;;;;;;;15.75;11.15;;;;;;;;;;1038572;28;20060;-74
2022/11/15 02:33:53;;;;;;;18.55;13.73;;;;;;;;;;1042665;28;20021;-74
2022/11/15 02:34:33;;;;;;;16.02;12.25;;;;;;;;;;1042410;28;20029;-74
2022/11/15 02:35:13;;;;;;;19.50;12.25;;;;;;;;;;1042971;28;20028;-74
2022/11/15 02:35:49;;;;;;;15.13;11.82;;;;;;;;;;1042606;28;20104;-74
2022/11/15 02:36:30;;;;;;;16.58;12.43;;;;;;;;;;1042582;28;20025;-73
2022/11/15 02:37:04;;;;;;;17.20;12.70;;;;;;;;;;1043759;28;20070;-74
2022/11/15 02:37:43;;;;;;;16.08;11.20;;;;;;;;;;1043775;28;20028;-73
2022/11/15 02:38:26;;;;;;;17.02;12.43;;;;;;;;;;1043205;28;20672;-73
2022/11/15 02:39:06;;;;;;;13.45;10.43;;;;;;;;;;1043325;28;20025;-74
2022/11/15 02:39:49;;;;;;;15.65;12.02;;;;;;;;;;1042245;28;20047;-74
2022/11/15 02:40:39;;;;;;;16.40;11.73;;;;;;;;;;1043987;28;20068;-73
2022/11/15 02:41:11;;;;;;;15.68;11.05;;;;;;;;;;1043326;28;20035;-74
2022/11/15 02:41:48;;;;;;;15.90;10.82;;;;;;;;;;1043286;28;20092;-74
2022/11/15 02:44:14;;;;;;;15.07;11.10;;;;;;;;;;1043398;28;20474;-74
2022/11/15 02:44:46;;;;;;;14.43;10.18;;;;;;;;;;1043984;28;20102;-75
2022/11/15 02:45:26;;;;;;;16.67;12.20;;;;;;;;;;1044001;28;20094;-74
2022/11/15 02:46:20;;;;;;;14.40;11.75;;;;;;;;;;1043604;28;20028;-74
2022/11/15 02:47:15;;;;;;;18.00;12.98;;;;;;;;;;1034739;28;20154;-74
2022/11/15 02:47:48;;;;;;;15.20;11.90;;;;;;;;;;1040314;28;20124;-75
2022/11/15 02:48:20;;;;;;;17.10;11.73;;;;;;;;;;1039062;28;20029;-75
2022/11/15 02:48:51;;;;;;;17.23;12.40;;;;;;;;;;1043273;28;20025;-74
2022/11/15 02:49:23;;;;;;;17.70;12.45;;;;;;;;;;1043040;28;20033;-75
2022/11/15 02:49:57;;;;;;;17.63;13.00;;;;;;;;;;1043647;28;20033;-74
2022/11/15 02:50:30;;;;;;;14.82;11.38;;;;;;;;;;1043574;28;20020;-74
2022/11/15 02:51:01;;;;;;;15.55;12.30;;;;;;;;;;1043409;28;20017;-75
2022/11/15 02:51:33;;;;;;;15.90;12.68;;;;;;;;;;1043424;28;20024;-74
2022/11/15 02:52:04;;;;;;;16.02;12.48;;;;;;;;;;1047436;28;20020;-74
2022/11/15 02:52:35;;;;;;;15.63;12.00;;;;;;;;;;1047577;28;20012;-74
2022/11/15 02:53:07;;;;;;;16.35;12.93;;;;;;;;;;1047498;28;20628;-74
2022/11/15 02:53:38;;;;;;;14.18;12.35;;;;;;;;;;1047051;28;20091;-74
2022/11/15 02:54:18;;;;;;;13.48;11.23;;;;;;;;;;1039294;28;20032;-74
2022/11/15 02:54:55;;;;;;;16.23;12.43;;;;;;;;;;1041029;28;20589;-74
2022/11/15 02:55:35;;;;;;;16.63;12.80;;;;;;;;;;1043622;28;20096;-75
2022/11/15 02:56:09;;;;;;;15.80;11.60;;;;;;;;;;1042835;28;20047;-74
2022/11/15 02:56:40;;;;;;;14.88;10.88;;;;;;;;;;1043245;28;20159;-74
2022/11/15 02:57:14;;;;;;;15.45;12.65;;;;;;;;;;1039024;28;20021;-75
2022/11/15 02:57:52;;;;;;;17.95;11.90;;;;;;;;;;1040437;28;20667;-74
2022/11/15 02:58:23;;;;;;;14.15;11.25;;;;;;;;;;1043536;28;20024;-75
2022/11/15 02:58:59;;;;;;;13.05;11.10;;;;;;;;;;1040692;28;20025;-72
2022/11/15 02:59:49;;;;;;;13.02;10.48;;;;;;;;;;1043187;28;20021;-72
2022/11/15 03:00:21;;;;;;;14.35;11.07;;;;;;;;;;1043417;28;20033;-73
2022/11/15 03:00:57;;;;;;;12.77;10.30;;;;;;;;;;1042768;28;20021;-73
2022/11/15 03:01:40;;;;;;;15.52;11.73;;;;;;;;;;1043254;28;20056;-73
2022/11/15 03:02:21;;;;;;;15.43;11.68;;;;;;;;;;1043433;28;20108;-74
2022/11/15 03:02:51;;;;;;;14.48;12.77;;;;;;;;;;1039659;28;20073;-73
2022/11/15 03:03:41;;;;;;;15.83;10.60;;;;;;;;;;1043481;28;20033;-73
2022/11/15 03:04:14;;;;;;;15.40;11.68;;;;;;;;;;1043312;28;20264;-73
2022/11/15 03:05:08;;;;;;;14.93;11.48;;;;;;;;;;1043364;28;20511;-75
2022/11/15 03:05:42;;;;;;;14.80;11.23;;;;;;;;;;1035407;28;20457;-75
2022/11/15 03:06:28;;;;;;;15.60;11.88;;;;;;;;;;1043131;28;20021;-72
2022/11/15 03:07:13;;;;;;;18.38;12.32;;;;;;;;;;1043098;28;20513;-73
2022/11/15 03:08:13;;;;;;;11.77;10.40;;;;;;;;;;1043829;28;20051;-73
2022/11/15 03:08:44;;;;;;;13.18;9.43;;;;;;;;;;1035099;28;20040;-74
2022/11/15 03:09:27;;;;;;;13.93;10.40;;;;;;;;;;1043454;28;20034;-73
2022/11/15 03:10:18;;;;;;;15.00;11.25;;;;;;;;;;1043605;28;20098;-73
2022/11/15 03:11:01;;;;;;;13.52;9.60;;;;;;;;;;1043404;28;20519;-74
2022/11/15 03:11:35;;;;;;;15.48;11.68;;;;;;;;;;1043185;28;20086;-74
2022/11/15 03:12:35;;;;;;;14.25;10.27;;;;;;;;;;1043460;28;20032;-73
2022/11/15 03:13:08;;;;;;;14.00;10.40;;;;;;;;;;1034875;28;20033;-73
2022/11/15 03:13:52;;;;;;;15.43;11.40;;;;;;;;;;1044117;28;20375;-74
2022/11/15 03:14:25;;;;;;;13.50;10.00;;;;;;;;;;1043388;28;20051;-74
2022/11/15 03:15:02;;;;;;;15.50;13.05;;;;;;;;;;1043695;28;20020;-73
2022/11/15 03:15:42;;;;;;;14.32;11.38;;;;;;;;;;1043341;28;20086;-72
2022/11/15 03:16:20;;;;;;;13.50;10.50;;;;;;;;;;1043842;28;20033;-73
2022/11/15 03:16:56;;;;;;;11.25;8.82;;;;;;;;;;1043727;28;20025;-73
2022/11/15 03:17:29;;;;;;;13.80;10.30;;;;;;;;;;1043491;28;20017;-73